Flight Track Log - Related Links

Times and Time Zones

All times are in EDT time to prevent confusion due to time zone crossing. See the KAP927 flight status page for this flight to view local times or setup timezone preferences in your user account.

Time Position Orientation Groundspeed Altitude Reporting Facility
EDT Latitude Longitude Course Direction KTS MPH feet Rate Location/Type
Wed 05:07:32 PM 44.5506 -75.3153 149° Southeast 155 178 4,000  Level Boston Center
Wed 05:08:32 PM 44.5219 -75.2908 149° Southeast 134 154 4,600 550 Climbing Boston Center
Wed 05:09:32 PM 44.4914 -75.2631 147° Southeast 134 154 5,100 550 Climbing Boston Center
Wed 05:10:32 PM 44.4608 -75.2353 147° Southeast 134 154 5,700 600 Climbing Boston Center
Wed 05:11:32 PM 44.4281 -75.2047 146° Southeast 134 154 6,300 550 Climbing Boston Center
Wed 05:12:00 PM 44.4902 -75.2947 149° Southeast  Level Estimated
Wed 05:12:32 PM 44.3978 -75.1742 144° Southeast 140 161 6,800  Level Boston Center
Wed 05:13:32 PM 44.3631 -75.1436 148° Southeast 140 161 7,400 550 Climbing Boston Center
Wed 05:14:32 PM 44.3281 -75.1217 156° South 140 161 7,900 500 Climbing Boston Center
Wed 05:15:32 PM 44.2933 -75.0942 150° Southeast 140 161 8,400 500 Climbing Boston Center
Wed 05:16:32 PM 44.2564 -75.0664 152° Southeast 140 161 8,900 300 Climbing Boston Center
Wed 05:17:32 PM 44.2197 -75.0328 147° Southeast 145 167 9,000 50 Climbing Boston Center
Wed 05:18:32 PM 44.1808 -74.9992 148° Southeast 157 181 9,000  Level Boston Center
Wed 05:19:44 PM 44.1400 -74.9628 147° Southeast 162 186 9,000  Level Boston Center
Wed 05:20:44 PM 44.0928 -74.9233 149° Southeast 167 192 9,000  Level Boston Center
Wed 05:21:44 PM 44.0539 -74.8897 148° Southeast 167 192 9,000  Level Boston Center
Wed 05:22:44 PM 44.0233 -74.8625 147° Southeast 167 192 9,000  Level Boston Center
Wed 05:23:44 PM 43.9761 -74.8231 149° Southeast 167 192 9,000  Level Boston Center
Wed 05:24:44 PM 43.9372 -74.7900 149° Southeast 167 192 9,000  Level Boston Center
Wed 05:25:44 PM 43.8961 -74.7594 152° Southeast 167 192 9,000  Level Boston Center
Wed 05:26:44 PM 43.8572 -74.7264 148° Southeast 167 192 9,000  Level Boston Center
Wed 05:27:44 PM 43.8183 -74.6903 146° Southeast 167 192 9,000  Level Boston Center
Wed 05:28:44 PM 43.7772 -74.6572 150° Southeast 167 192 9,000  Level Boston Center
Wed 05:29:44 PM 43.7342 -74.6181 147° Southeast 167 192 9,000  Level Boston Center
Wed 05:30:44 PM 43.6933 -74.5850 150° Southeast 167 192 9,000  Level Boston Center
Wed 05:31:44 PM 43.6522 -74.5492 148° Southeast 167 192 9,000  Level Boston Center
Wed 05:32:44 PM 43.6133 -74.5164 149° Southeast 167 192 9,000  Level Boston Center
Wed 05:33:44 PM 43.5722 -74.4861 152° Southeast 167 192 9,000  Level Boston Center
Wed 05:34:44 PM 43.5331 -74.4506 147° Southeast 167 192 9,000  Level Boston Center
Wed 05:35:44 PM 43.4942 -74.4178 149° Southeast 167 192 9,000  Level Boston Center
Wed 05:36:44 PM 43.4550 -74.3850 149° Southeast 167 192 9,000  Level Boston Center
Wed 05:37:26 PM 43.4264 -74.3611 149° Southeast 170 196 9,000  Level Boston Center
Wed 05:38:20 PM 43.3914 -74.3317 149° Southeast 169 194 9,000  Level Boston Center
Wed 05:39:21 PM 43.3522 -74.2989 149° Southeast 165 190 9,000  Level Boston Center
Wed 05:40:22 PM 43.3092 -74.2633 149° Southeast 167 192 9,000  Level Boston Center
Wed 05:41:28 PM 43.2658 -74.2308 151° Southeast 168 193 9,000  Level Boston Center
Wed 05:42:29 PM 43.2331 -74.1869 136° Southeast 169 194 9,000 -94 Level Boston Center
Wed 05:43:36 PM 43.1881 -74.1372 141° Southeast 172 198 8,800 -362 Descending Boston Center
Wed 05:44:25 PM 43.1594 -74.0994 136° Southeast 183 211 8,300 -606 Descending Boston Center
Wed 05:45:25 PM 43.1183 -74.0528 140° Southeast 199 229 7,700 -744 Descending Boston Center
Wed 05:46:26 PM 43.0733 -73.9978 138° Southeast 203 234 6,800 -761 Descending Boston Center
Wed 05:47:39 PM 43.0261 -73.9369 137° Southeast 202 232 6,000 -627 Descending Boston Center
Wed 05:48:40 PM 42.9831 -73.8875 140° Southeast 195 224 5,400 -694 Descending Boston Center
Wed 05:49:40 PM 42.9400 -73.8411 142° Southeast 190 219 4,600 -893 Descending Boston Center
Wed 05:50:41 PM 42.8881 -73.8172 161° South 181 208 3,600 -726 Descending Boston Center
Wed 05:51:44 PM 42.8467 -73.7936 157° South 171 197 3,100 -1,091 Descending Boston Center
Wed 05:52:42 PM 42.7986 -73.8097 194° South 140 161 1,400 -1,311 Descending Boston Center
Wed 05:53:43 PM 42.7653 -73.8061 175° South 117 135 500 -885 Descending Boston Center
Wed 05:55:00 PM 42.7491 -73.8020 160° South  Level Estimated
Wed 06:02:00 PM 42.7491 -73.8020 160° South  Level Estimated
Wed 06:03:00 PM 42.7491 -73.8020 160° South  Level Estimated
Wed 06:04:00 PM 42.7491 -73.8020 160° South  Level Estimated

Login

Don't have an account? Register now (free) for customized features, flight alerts, and more!